Home - Port Arrivals

Home - Port Arrivals By Port - Port Arrivals By Country - Port Arrivals By Region - Port Arrivals By Vessel - Port Arrivals By Type - Port Arrivals Search - Port Arrivals

Vessels arriving in United Kingdom

Vessel Name Ship TypeIMOBuiltDWT DestinationETA
ARUBABORG GENERAL CARGO SHIP 9466295 2009 17300 BELFAST 08 May 2016 12:00
JAN VAN GENT GENERAL CARGO SHIP 9456721 2009 GLASGOW 07 May 2016 12:00
SORMOVSKIY-3067 GENERAL CARGO SHIP 8704559 1990 3391 BRISTOL 04 May 2016 20:00
HANSEATIC SCOUT GENERAL CARGO SHIP 9229130 2002 3972 SILLOTH 04 May 2016 17:00
UKD BLUEFIN HOPPER DREDGER 9143427 1997 5500 SOUTHAMPTON 04 May 2016 12:00
CSAV LONQUEN CONTAINER SHIP 9360764 2008 53685 FELIXSTOWE 02 May 2016 17:00
PAN PAC SPIRIT BULK CARRIER 9186780 1999 36466 GIBRALTAR 02 May 2016 14:00
TRANS ALREK GENERAL CARGO SHIP 9330953 2006 4900 KINGSTON UPON HULL 02 May 2016 12:00
LAMMY GENERAL CARGO SHIP 9467184 2008 3500 KINGSTON UPON HULL 02 May 2016 12:00
MIRANDA RORO CARGO SHIP 9183790 1999 7438 LONDON 02 May 2016 11:00
SCOT PIONEER GENERAL CARGO SHIP 9331347 2006 2950 INVERNESS 02 May 2016 08:30
BUFFALO CONTAINER SHIP 9313943 2007 52400 FELIXSTOWE 02 May 2016 03:00
PALLAS GLORY OIL PRODUCTS TANKER 9318230 2005 3500 DUNDEE 01 May 2016 23:00
BROVIG BORA CHEMICAL / OIL PRODUCTS TANKER 9316024 2006 3508 GREAT YARMOUTH 01 May 2016 20:00
HOLSTENTOR GENERAL CARGO SHIP 8801125 1989 3370 BELFAST 01 May 2016 18:00
SARDINIA GENERAL CARGO SHIP 9191278 1998 4450 GIBRALTAR 01 May 2016 12:00
REBECCA HAMMANN GENERAL CARGO SHIP 9119634 1995 2420 LONDON 01 May 2016 08:00
RYSTRAUM CHEMICAL TANKER 9391000 2008 9500 BELFAST 01 May 2016 06:00
SKAGERN GENERAL CARGO SHIP 9197791 2000 3171 KINGSTON UPON HULL 01 May 2016 05:00
BIRKA TRADER RORO CARGO SHIP 9132014 1998 8853 KINGSTON UPON HULL 01 May 2016 02:00
LAIMA CHEMICAL / OIL PRODUCTS TANKER 9260031 2003 37000 GIBRALTAR 30 April 2016 23:00
REMORA GENERAL CARGO SHIP 9213703 2000 1805 AVONMOUTH 30 April 2016 21:00
BRO NYBORG CHEMICAL / OIL PRODUCTS TANKER 9322695 2007 16400 PEMBROKE 30 April 2016 20:00
ZAPADNYY OIL PRODUCTS TANKER 8711837 1988 3297 AVONMOUTH 30 April 2016 16:00
STEINAU GENERAL CARGO SHIP 9280691 2006 3680 PLYMOUTH 30 April 2016 12:00
FAST JEF GENERAL CARGO SHIP 9136101 1996 3202 GOOLE 30 April 2016 12:00
KAIE GENERAL CARGO SHIP 8906298 1990 4161 LEITH 30 April 2016 12:00
GAZ ENERGY LPG TANKER 9458169 2010 GIBRALTAR 30 April 2016 12:00
SHANNON FISHER OIL PRODUCTS TANKER 9320489 2006 5000 LERWICK 30 April 2016 09:30
ASPEN GENERAL CARGO SHIP 9195389 2000 3171 MONTROSE 30 April 2016 08:00
ARCO BECK HOPPER DREDGER 8817722 1989 4752 TEESPORT 30 April 2016 07:00
STENA MERSEY PASSENGER / RORO CARGO SHIP 9329851 2005 7500 LIVERPOOL 30 April 2016 06:30
FIONIA SEAWAYS RORO CARGO SHIP 9395343 2008 10300 IMMINGHAM 30 April 2016 06:30
KAISA GENERAL CARGO SHIP 9333462 2006 4400 AVONMOUTH 30 April 2016 05:00
RMS RUHRORT GENERAL CARGO SHIP 9075357 1993 2500 GOOLE 30 April 2016 04:00
AZURA CRUISE SHIP 9424883 2010 9000 SOUTHAMPTON 30 April 2016 03:15
BIRKA EXPORTER RORO CARGO SHIP 8820860 1991 5409 KINGSTON UPON HULL 30 April 2016 03:00
BRO NIBE CHEMICAL / OIL PRODUCTS TANKER 9322700 2007 16400 PEMBROKE 30 April 2016 03:00
LOUISE KNUTSEN CHEMICAL TANKER 9442249 2010 16400 IMMINGHAM 30 April 2016 02:30
LIESEL ESSBERGER OIL PRODUCTS TANKER 9272761 2004 8500 FAWLEY 30 April 2016 02:00
INDEPENDENT PURSUIT CONTAINER SHIP 9336189 2007 27200 LIVERPOOL 30 April 2016 01:00
SCOT EXPLORER GENERAL CARGO SHIP 9137193 1996 2600 TEESPORT 29 April 2016 23:59
ARCO DART DREDGER 8902905 1990 1700 NEWPORT 29 April 2016 23:15
ATHENA CRUISE SHIP 5383304 1948 2020 AVONMOUTH 29 April 2016 23:00
UKD SEAHORSE DREDGER 9066655 2000 TEESPORT 29 April 2016 22:00
ISAR HIGHWAY VEHICLES CARRIER 9195145 2000 3414 GRIMSBY 29 April 2016 22:00
CITY OF CARDIFF HOPPER DREDGER 9141754 1997 2730 AVONMOUTH 29 April 2016 21:30
EUROPEAN HIGHLANDER PASSENGER / RORO CARGO SHIP 9244116 2002 4480 LARNE 29 April 2016 21:00
ARNEBORG GENERAL CARGO SHIP 9333539 2006 17500 BELFAST 29 April 2016 21:00
ARCO AXE DREDGER 8803783 1989 5348 TEESPORT 29 April 2016 20:00
ANDREA CONTAINER SHIP 9333357 2005 11200 LONDON 29 April 2016 18:35
AASHEIM GENERAL CARGO SHIP 9247106 2001 5826 LONDON 29 April 2016 18:00
SEAMARLIN OIL PRODUCTS TANKER 9380489 2007 40500 LONDON 29 April 2016 18:00
RMS RAHM GENERAL CARGO SHIP 9117973 1995 2500 KINGSTON UPON HULL 29 April 2016 17:00
ALERT UTILITY VESSEL 9338618 2006 LOWESTOFT 29 April 2016 16:45
JOLANTA GENERAL CARGO SHIP 9148257 1999 4575 BELFAST 29 April 2016 16:45
CLIPPER PACE RORO CARGO SHIP 9350678 2008 3800 LIVERPOOL 29 April 2016 16:30
DELTAGAS LPG TANKER 9008471 1992 3582 IMMINGHAM 29 April 2016 16:00
RIG GENERAL CARGO SHIP 8801137 1989 3200 IPSWICH 29 April 2016 15:00
BRO DEVELOPER CHEMICAL / OIL PRODUCTS TANKER 9313125 2007 14740 PEMBROKE 29 April 2016 14:00
CEFAS ENDEAVOUR TRAWLER 9251107 2003 650 LOWESTOFT 29 April 2016 13:00
ARGA BAY AGGREGATES CARRIER 8813049 1989 1400 NEWPORT 29 April 2016 12:50
EMS HIGHWAY VEHICLES CARRIER 9195133 1999 3414 GRIMSBY 29 April 2016 11:00
HOEGH SINGAPORE VEHICLES CARRIER 9431862 2009 12000 SOUTHAMPTON 29 April 2016 11:00
AYRESS GENERAL CARGO SHIP 7816135 1979 1600 TROON 29 April 2016 10:00
BBC HUDSON GENERAL CARGO SHIP 9435868 2008 17300 GRANGEMOUTH 29 April 2016 10:00
BRO DISTRIBUTOR CHEMICAL / OIL PRODUCTS TANKER 9313113 2006 14500 CARDIFF 29 April 2016 09:45
ZEELAND GENERAL CARGO SHIP 9411771 2008 3250 NEWPORT 29 April 2016 09:00
BRO GLOBE OIL PRODUCTS TANKER 9229051 2001 7559 PEMBROKE 29 April 2016 07:00
STENA LAGAN PASSENGER / RORO CARGO SHIP 9329849 2005 7500 BELFAST 29 April 2016 06:30
CLAUS OIL PRODUCTS TANKER 9268253 2004 7402 PEMBROKE 29 April 2016 06:00
HR ENDEAVOUR GENERAL CARGO SHIP 9261073 2005 13000 GIBRALTAR 29 April 2016 05:00
PAULINE RUSS RORO CARGO SHIP 9198989 1999 7250 LONDON 29 April 2016 05:00
EUROPEAN CAUSEWAY PASSENGER / RORO CARGO SHIP 9208394 2000 4335 LARNE 29 April 2016 05:00
JADE GENERAL CARGO SHIP 9411769 2008 3250 BARRY 29 April 2016 05:00
STROOMBANK GENERAL CARGO SHIP 9356543 2008 4500 IMMINGHAM 29 April 2016 03:15
WILSON LAHN GENERAL CARGO SHIP 9198458 2001 2500 BLYTH 29 April 2016 03:00
DAROJA GENERAL CARGO SHIP 9148221 1997 4513 LERWICK 29 April 2016 01:30
BRO NORDBY CHEMICAL / OIL PRODUCTS TANKER 9322712 2007 16000 GRANGEMOUTH 28 April 2016 23:30
CEMSOL GENERAL CARGO SHIP 9180401 1998 4850 LONDON 28 April 2016 23:00
STEN FRIGG CHEMICAL TANKER 9407976 2009 16600 TEESPORT 28 April 2016 22:00
KRISTIN SCHEPERS CONTAINER SHIP 9404089 2008 9400 AVONMOUTH 28 April 2016 22:00
ENCOUNTER GENERAL CARGO SHIP 9255775 2004 9500 LIVERPOOL 28 April 2016 22:00
VEDETTE GENERAL CARGO SHIP 9195729 2000 3400 LEITH 28 April 2016 21:00
AUTOPRESTIGE VEHICLES CARRIER 9190157 1999 4311 IMMINGHAM 28 April 2016 20:00
NORDIC NADJA CHEMICAL / OIL PRODUCTS TANKER 9122112 1996 5752 GRANGEMOUTH 28 April 2016 20:00
MOZART CHEMICAL / OIL PRODUCTS TANKER 9174086 2000 3050 TEESPORT 28 April 2016 20:00
WELSH PIPER DREDGER 8611491 1987 1923 AVONMOUTH 28 April 2016 19:45
ELI KNUTSEN CHEMICAL TANKER 9409261 2009 16400 IMMINGHAM 28 April 2016 19:00
ANGERMANLAND GENERAL CARGO SHIP 8818752 1989 4334 KINGSTON UPON HULL 28 April 2016 19:00
STAVROS S NIARCHOS SAIL TRAINING SHIP 9222314 2000 60 GREENOCK 28 April 2016 18:00
BEAUMARE GENERAL CARGO SHIP 9401245 2008 3850 IMMINGHAM 28 April 2016 18:00
JANNE WONSILD CHEMICAL / OIL PRODUCTS TANKER 9010931 1993 2694 FAWLEY 28 April 2016 17:00
HIGHLAND SPIRIT STANDBY-SAFETY VESSEL 8325793 1998 2000 SUNDERLAND 28 April 2016 14:00
ANDROMEDA J CONTAINER SHIP 9355422 2006 10500 GRANGEMOUTH 28 April 2016 13:15
CEMLUNA GENERAL CARGO SHIP 9007063 1991 3982 LONDON 28 April 2016 13:00
COSTANZA WONSILD CHEMICAL TANKER 9013658 1994 2693 FAWLEY 28 April 2016 10:00
SOLENT FISHER OIL PRODUCTS TANKER 9118173 1997 4970 IMMINGHAM 28 April 2016 08:45
BARIZO GENERAL CARGO SHIP 9188946 1999 5647 AVONMOUTH 28 April 2016 08:00
STAR BONAIRE EDIBLE OIL TANKER 9148453 1997 3216 KINGSTON UPON HULL 28 April 2016 08:00
WHITCHAMPION OIL PRODUCTS TANKER 9252280 2003 4500 PLYMOUTH 28 April 2016 07:30
PUTFORD ACHIEVER OFFSHORE TUG/SUPPLY SHIP 9268100 2003 1497 GREAT YARMOUTH 28 April 2016 07:00
SEABOURN QUEST CRUISE SHIP 9483126 2011 3000 GIBRALTAR 28 April 2016 06:00
MSC SPLENDIDA CRUISE SHIP 9359806 2009 10000 INVERGORDON 28 April 2016 05:00
JORK RULER CONTAINER SHIP 9328027 2006 10500 TEESPORT 28 April 2016 05:00
ANNEGRET GENERAL CARGO SHIP 9147710 2000 9270 TYNE 28 April 2016 02:00
MORITZ SCHULTE LPG TANKER 9220794 2002 6450 BRAEFOOT BAY TERMINAL 28 April 2016 00:00
BEN MAYE GENERAL CARGO SHIP 7726861 1979 805 BELFAST 27 April 2016 23:00
VERITY GENERAL CARGO SHIP 9229178 2001 3300 CARDIFF 27 April 2016 18:30
EEMS DELFIA GENERAL CARGO SHIP 8411633 1985 1528 IMMINGHAM 27 April 2016 18:00
PUTFORD SHORE STANDBY-SAFETY VESSEL 6712514 1967 844 GREAT YARMOUTH 27 April 2016 18:00
PUTFORD ATHENA STANDBY-SAFETY VESSEL 7404217 1975 745 GREAT YARMOUTH 27 April 2016 18:00
EDUARD ESSBERGER CHEMICAL / OIL PRODUCTS TANKER 9114751 1996 5870 IMMINGHAM 27 April 2016 18:00
OPDR TENERIFE CONTAINER SHIP 9216846 2002 7900 LONDON 27 April 2016 14:00
MERSEY FISHER OIL PRODUCTS TANKER 9170420 1998 4765 PETERHEAD 27 April 2016 14:00
UNIMAR GENERAL CARGO SHIP 9155949 1997 4085 SEAHAM 27 April 2016 12:00
OLYMPIC CHALLENGER OFFSHORE SUPPORT VESSEL 9398292 2008 LERWICK 27 April 2016 12:00
SCOT VENTURE GENERAL CARGO SHIP 9243928 2002 3330 INVERNESS 27 April 2016 12:00
LADY NOVA GENERAL CARGO SHIP 9243887 2002 2100 GOOLE 27 April 2016 11:00
SOPHIA CONTAINER SHIP 9433456 2009 9500 LIVERPOOL 27 April 2016 10:00
URSULA ESSBERGER CHEMICAL TANKER 9480992 2009 5300 TEESPORT 27 April 2016 09:00
ASIA VISION LNG TANKER 9606948 GIBRALTAR 27 April 2016 09:00
OPALINE RORO CARGO SHIP 9424869 2011 13375 KINGSTON UPON HULL 27 April 2016 09:00
WILSON CAEN GENERAL CARGO SHIP 9173290 1998 4452 IMMINGHAM 27 April 2016 08:30
WEC DALI CONTAINER SHIP 9237371 2001 11200 LIVERPOOL 27 April 2016 07:00
CENTRICA PRIDE OFFSHORE TUG/SUPPLY SHIP 9359832 2007 2000 IMMINGHAM 27 April 2016 06:00
AMKE GENERAL CARGO SHIP 9374387 2006 6500 LIVERPOOL 27 April 2016 06:00
MSC MANDRAKI CONTAINER SHIP 8613310 1988 60639 FELIXSTOWE 27 April 2016 05:00
EILSUM GENERAL CARGO SHIP 9015436 1991 1920 GOOLE 27 April 2016 05:00
MILFORD FISHER OIL PRODUCTS TANKER 9118185 1998 4973 IMMINGHAM 27 April 2016 03:30
AUTUMN CHEMICAL / OIL PRODUCTS TANKER 9416795 2008 13000 GRANGEMOUTH 27 April 2016 01:00
VEMAOIL XIV OIL PRODUCTS TANKER 9078414 1993 4997 GIBRALTAR 27 April 2016 00:50
Source: www.portarrivals.com


portarrivals.com. All Rights Reserved. Terms and Conditions
Contact Us


20150201c